createdAt,value
2022-09-09T00:00:48.411Z,59.74
2022-09-09T00:01:48.396Z,59.83
2022-09-09T00:02:48.498Z,60.03
2022-09-09T00:03:48.499Z,60.03
2022-09-09T00:04:48.389Z,59.93
2022-09-09T00:05:48.383Z,60.06
2022-09-09T00:06:48.382Z,60.13
2022-09-09T00:07:48.394Z,59.93
2022-09-09T00:08:48.386Z,59.74
2022-09-09T00:09:48.382Z,60.03
2022-09-09T00:10:48.387Z,60.31
2022-09-09T00:11:48.388Z,60.61
2022-09-09T00:12:48.390Z,60.41
2022-09-09T00:13:48.381Z,60.89
2022-09-09T00:14:48.388Z,60.80
2022-09-09T00:15:48.398Z,60.22
2022-09-09T00:16:48.392Z,60.41
2022-09-09T00:17:48.378Z,60.71
2022-09-09T00:18:48.370Z,60.41
2022-09-09T00:19:48.371Z,60.61
2022-09-09T00:20:48.375Z,60.31
2022-09-09T00:21:48.372Z,60.80
2022-09-09T00:22:48.376Z,60.51
2022-09-09T00:23:48.368Z,60.71
2022-09-09T00:24:48.359Z,60.51
2022-09-09T00:25:52.252Z,60.51
2022-09-09T00:26:48.364Z,60.61
2022-09-09T00:27:48.358Z,60.80
2022-09-09T00:28:48.363Z,61.47
2022-09-09T00:29:48.369Z,61.25
2022-09-09T00:30:48.424Z,61.16
2022-09-09T00:31:48.361Z,61.16
2022-09-09T00:32:48.372Z,61.16
2022-09-09T00:33:48.352Z,61.06
2022-09-09T00:34:48.356Z,61.25
2022-09-09T00:35:48.355Z,61.44
2022-09-09T00:36:48.358Z,60.80
2022-09-09T00:37:48.356Z,60.61
2022-09-09T00:38:48.349Z,60.71
2022-09-09T00:39:48.433Z,60.68
2022-09-09T00:40:48.348Z,60.28
2022-09-09T00:41:48.361Z,60.51
2022-09-09T00:42:48.334Z,60.51
2022-09-09T00:43:48.340Z,60.89
2022-09-09T00:44:48.343Z,60.71
2022-09-09T00:45:48.394Z,60.51
2022-09-09T00:46:48.337Z,60.80
2022-09-09T00:47:48.362Z,60.61
2022-09-09T00:48:48.376Z,60.61
2022-09-09T00:49:48.338Z,60.80
2022-09-09T00:50:48.332Z,60.80
2022-09-09T00:51:48.333Z,60.41
2022-09-09T00:52:48.333Z,60.51
2022-09-09T00:53:48.345Z,60.51
2022-09-09T00:54:48.337Z,60.31
2022-09-09T00:55:48.340Z,60.41
2022-09-09T00:56:48.331Z,60.31
2022-09-09T00:57:48.328Z,60.22
2022-09-09T00:58:48.329Z,60.13
2022-09-09T00:59:48.320Z,60.31
2022-09-09T01:00:48.324Z,60.13
2022-09-09T01:01:48.384Z,59.74
2022-09-09T01:02:48.385Z,59.74
2022-09-09T01:03:48.320Z,59.74
2022-09-09T01:04:48.337Z,59.93
2022-09-09T01:05:48.322Z,59.93
2022-09-09T01:06:48.317Z,59.83
2022-09-09T01:07:48.323Z,60.03
2022-09-09T01:08:48.308Z,59.83
2022-09-09T01:09:48.327Z,59.83
2022-09-09T01:10:48.314Z,60.03
2022-09-09T01:11:48.312Z,60.16
2022-09-09T01:12:48.344Z,59.83
2022-09-09T01:13:48.315Z,60.03
2022-09-09T01:14:48.318Z,60.13
2022-09-09T01:15:48.304Z,59.74
2022-09-09T01:16:48.332Z,60.13
2022-09-09T01:17:48.311Z,59.93
2022-09-09T01:18:48.309Z,59.83
2022-09-09T01:19:48.309Z,59.83
2022-09-09T01:20:48.328Z,60.13
2022-09-09T01:21:48.313Z,59.93
2022-09-09T01:22:48.301Z,59.83
2022-09-09T01:23:48.310Z,60.13
2022-09-09T01:24:48.306Z,60.03
2022-09-09T01:25:48.308Z,60.03
2022-09-09T01:26:48.306Z,60.03
2022-09-09T01:27:48.297Z,60.03
2022-09-09T01:28:48.296Z,59.93
2022-09-09T01:29:48.292Z,59.83
2022-09-09T01:30:48.345Z,60.03
2022-09-09T01:31:48.302Z,59.83
2022-09-09T01:32:48.314Z,60.03
2022-09-09T01:33:48.301Z,60.31
2022-09-09T01:34:48.304Z,59.93
2022-09-09T01:35:48.293Z,60.51
2022-09-09T01:36:48.318Z,60.61
2022-09-09T01:37:48.292Z,60.89
2022-09-09T01:38:48.307Z,60.41
2022-09-09T01:39:48.329Z,60.61
2022-09-09T01:40:48.296Z,60.48
2022-09-09T01:41:48.290Z,60.58
2022-09-09T01:42:48.279Z,60.38
2022-09-09T01:43:48.284Z,60.38
2022-09-09T01:44:48.287Z,60.38
2022-09-09T01:45:48.318Z,60.48
2022-09-09T01:46:48.294Z,60.48
2022-09-09T01:47:48.281Z,60.48
2022-09-09T01:48:48.287Z,60.68
2022-09-09T01:49:48.279Z,60.68
2022-09-09T01:50:48.280Z,60.38
2022-09-09T01:51:48.286Z,60.68
2022-09-09T01:52:48.297Z,60.38
2022-09-09T01:53:48.271Z,60.38
2022-09-09T01:54:48.272Z,60.38
2022-09-09T01:55:48.286Z,60.38
2022-09-09T01:56:48.263Z,60.68
2022-09-09T01:57:48.273Z,60.77
2022-09-09T01:58:48.276Z,60.77
2022-09-09T01:59:48.272Z,61.06
2022-09-09T02:00:48.291Z,60.86
2022-09-09T02:01:48.265Z,61.16
2022-09-09T02:02:48.339Z,60.96
2022-09-09T02:03:48.272Z,61.35
2022-09-09T02:04:48.262Z,61.06
2022-09-09T02:05:48.272Z,61.06
2022-09-09T02:06:48.255Z,61.06
2022-09-09T02:07:48.252Z,61.16
2022-09-09T02:08:48.271Z,61.51
2022-09-09T02:09:48.249Z,61.13
2022-09-09T02:10:48.246Z,61.32
2022-09-09T02:11:48.241Z,61.03
2022-09-09T02:12:48.254Z,61.22
2022-09-09T02:13:48.250Z,61.32
2022-09-09T02:14:48.247Z,61.61
2022-09-09T02:15:48.250Z,61.61
2022-09-09T02:16:48.261Z,61.71
2022-09-09T02:17:48.234Z,61.71
2022-09-09T02:18:48.249Z,61.32
2022-09-09T02:19:48.227Z,61.51
2022-09-09T02:20:48.229Z,61.61
2022-09-09T02:21:48.228Z,61.80
2022-09-09T02:22:48.293Z,61.61
2022-09-09T02:23:48.251Z,61.51
2022-09-09T02:24:48.243Z,61.61
2022-09-09T02:25:48.230Z,61.61
2022-09-09T02:26:48.220Z,61.61
2022-09-09T02:27:48.216Z,61.61
2022-09-09T02:28:48.223Z,61.51
2022-09-09T02:29:48.223Z,61.61
2022-09-09T02:30:48.326Z,61.51
2022-09-09T02:31:48.205Z,61.61
2022-09-09T02:32:48.211Z,61.61
2022-09-09T02:33:48.210Z,61.61
2022-09-09T02:34:48.207Z,61.71
2022-09-09T02:35:48.217Z,61.32
2022-09-09T02:36:48.214Z,61.41
2022-09-09T02:37:48.197Z,61.51
2022-09-09T02:38:48.206Z,61.41
2022-09-09T02:39:48.240Z,61.51
2022-09-09T02:40:48.217Z,61.41
2022-09-09T02:41:48.214Z,61.22
2022-09-09T02:42:48.192Z,61.51
2022-09-09T02:43:48.188Z,61.51
2022-09-09T02:44:48.198Z,61.51
2022-09-09T02:45:48.217Z,61.22
2022-09-09T02:46:48.190Z,61.41
2022-09-09T02:47:48.183Z,61.32
2022-09-09T02:48:48.199Z,61.22
2022-09-09T02:49:48.175Z,61.22
2022-09-09T02:50:48.175Z,61.32
2022-09-09T02:51:48.186Z,61.41
2022-09-09T02:52:48.187Z,61.71
2022-09-09T02:53:48.183Z,61.71
2022-09-09T02:54:48.173Z,61.61
2022-09-09T02:55:48.164Z,61.41
2022-09-09T02:56:48.196Z,61.80
2022-09-09T02:57:48.171Z,61.71
2022-09-09T02:58:48.162Z,61.80
2022-09-09T02:59:48.165Z,61.51
2022-09-09T03:00:48.219Z,61.22
2022-09-09T03:01:48.159Z,61.61
2022-09-09T03:02:48.292Z,61.13
2022-09-09T03:03:48.166Z,61.03
2022-09-09T03:04:48.152Z,61.22
2022-09-09T03:05:48.169Z,61.32
2022-09-09T03:06:48.148Z,61.51
2022-09-09T03:07:48.152Z,61.51
2022-09-09T03:08:49.770Z,61.51
2022-09-09T03:09:48.158Z,61.51
2022-09-09T03:10:48.153Z,61.41
2022-09-09T03:11:48.142Z,61.41
2022-09-09T03:12:48.178Z,61.22
2022-09-09T03:13:48.143Z,61.51
2022-09-09T03:14:48.142Z,61.22
2022-09-09T03:15:48.143Z,61.41
2022-09-09T03:16:48.205Z,61.13
2022-09-09T03:17:48.161Z,61.51
2022-09-09T03:18:48.129Z,61.61
2022-09-09T03:19:48.137Z,61.51
2022-09-09T03:20:48.125Z,61.22
2022-09-09T03:21:48.148Z,61.41
2022-09-09T03:22:48.139Z,61.03
2022-09-09T03:23:48.122Z,61.41
2022-09-09T03:24:48.132Z,61.22
2022-09-09T03:25:48.124Z,61.32
2022-09-09T03:26:48.136Z,61.32
2022-09-09T03:27:48.124Z,61.51
2022-09-09T03:28:48.146Z,61.61
2022-09-09T03:29:48.117Z,61.61
2022-09-09T03:30:48.114Z,61.51
2022-09-09T03:31:48.165Z,61.51
2022-09-09T03:32:49.064Z,61.51
2022-09-09T03:33:48.117Z,61.51
2022-09-09T03:34:48.108Z,61.32
2022-09-09T03:35:48.105Z,61.51
2022-09-09T03:36:48.109Z,61.03
2022-09-09T03:37:48.102Z,61.41
2022-09-09T03:38:48.116Z,61.41
2022-09-09T03:39:48.142Z,61.32
2022-09-09T03:40:48.096Z,61.61
2022-09-09T03:41:48.110Z,61.61
2022-09-09T03:42:48.095Z,61.80
2022-09-09T03:43:48.083Z,61.71
2022-09-09T03:44:48.115Z,61.61
2022-09-09T03:45:48.155Z,61.99
2022-09-09T03:46:48.079Z,61.71
2022-09-09T03:47:48.086Z,61.80
2022-09-09T03:48:48.085Z,61.71
2022-09-09T03:49:48.089Z,61.71
2022-09-09T03:50:48.090Z,61.51
2022-09-09T03:51:48.080Z,61.61
2022-09-09T03:52:48.075Z,61.80
2022-09-09T03:53:48.080Z,61.71
2022-09-09T03:54:48.070Z,61.51
2022-09-09T03:55:48.088Z,61.41
2022-09-09T03:56:48.077Z,61.51
2022-09-09T03:57:48.072Z,61.32
2022-09-09T03:58:48.067Z,61.32
2022-09-09T03:59:48.064Z,61.41
2022-09-09T04:00:48.115Z,61.61
2022-09-09T04:01:48.114Z,61.61
2022-09-09T04:02:48.066Z,61.13
2022-09-09T04:03:48.052Z,61.41
2022-09-09T04:04:48.057Z,61.22
2022-09-09T04:05:48.060Z,61.41
2022-09-09T04:06:48.047Z,61.61
2022-09-09T04:07:48.052Z,61.68
2022-09-09T04:08:48.047Z,61.58
2022-09-09T04:09:48.052Z,61.99
2022-09-09T04:10:48.047Z,61.90
2022-09-09T04:11:48.056Z,61.61
2022-09-09T04:12:49.598Z,61.80
2022-09-09T04:13:48.041Z,61.80
2022-09-09T04:14:48.042Z,61.71
2022-09-09T04:15:48.037Z,61.99
2022-09-09T04:16:48.117Z,61.58
2022-09-09T04:17:48.035Z,61.61
2022-09-09T04:18:48.024Z,61.58
2022-09-09T04:19:48.024Z,61.80
2022-09-09T04:20:48.030Z,61.61
2022-09-09T04:21:48.017Z,61.90
2022-09-09T04:22:48.027Z,61.99
2022-09-09T04:23:48.022Z,61.51
2022-09-09T04:24:48.877Z,61.99
2022-09-09T04:25:48.030Z,61.71
2022-09-09T04:26:48.032Z,61.77
2022-09-09T04:27:48.014Z,61.71
2022-09-09T04:28:48.010Z,61.51
2022-09-09T04:29:48.009Z,61.32
2022-09-09T04:30:48.013Z,61.22
2022-09-09T04:31:48.154Z,61.41
2022-09-09T04:32:48.027Z,61.51
2022-09-09T04:33:48.008Z,61.80
2022-09-09T04:34:48.005Z,61.61
2022-09-09T04:35:48.002Z,61.61
2022-09-09T04:36:47.999Z,61.80
2022-09-09T04:37:47.999Z,61.71
2022-09-09T04:38:47.999Z,61.90
2022-09-09T04:39:48.078Z,61.90
2022-09-09T04:40:47.992Z,61.61
2022-09-09T04:41:47.995Z,61.71
2022-09-09T04:42:47.995Z,61.80
2022-09-09T04:43:47.984Z,61.68
2022-09-09T04:44:47.988Z,61.58
2022-09-09T04:45:48.064Z,61.71
2022-09-09T04:46:47.992Z,61.51
2022-09-09T04:47:47.981Z,61.61
2022-09-09T04:48:48.002Z,61.71
2022-09-09T04:49:47.982Z,61.51
2022-09-09T04:50:47.977Z,61.41
2022-09-09T04:51:47.974Z,61.22
2022-09-09T04:52:47.978Z,61.32
2022-09-09T04:53:47.968Z,61.22
2022-09-09T04:54:47.970Z,61.51
2022-09-09T04:55:47.966Z,61.32
2022-09-09T04:56:47.960Z,61.41
2022-09-09T04:57:47.961Z,61.41
2022-09-09T04:58:47.954Z,61.71
2022-09-09T04:59:47.962Z,61.71
2022-09-09T05:00:47.994Z,61.51
2022-09-09T05:01:48.064Z,61.90
2022-09-09T05:02:47.948Z,61.71
2022-09-09T05:03:47.957Z,61.71
2022-09-09T05:04:47.965Z,61.80
2022-09-09T05:05:47.944Z,62.18
2022-09-09T05:06:47.950Z,62.06
2022-09-09T05:07:47.944Z,62.25
2022-09-09T05:08:47.950Z,62.06
2022-09-09T05:09:47.948Z,62.35
2022-09-09T05:10:47.935Z,62.06
2022-09-09T05:11:47.941Z,61.87
2022-09-09T05:12:47.935Z,62.06
2022-09-09T05:13:47.933Z,62.06
2022-09-09T05:14:47.927Z,61.96
2022-09-09T05:15:47.925Z,62.06
2022-09-09T05:16:48.002Z,62.25
2022-09-09T05:17:47.921Z,62.06
2022-09-09T05:18:47.930Z,62.25
2022-09-09T05:19:47.924Z,62.35
2022-09-09T05:20:47.950Z,62.15
2022-09-09T05:21:47.920Z,62.15
2022-09-09T05:22:47.920Z,62.25
2022-09-09T05:23:47.913Z,62.15
2022-09-09T05:24:47.913Z,62.25
2022-09-09T05:25:47.909Z,61.96
2022-09-09T05:26:47.916Z,62.06
2022-09-09T05:27:47.911Z,62.25
2022-09-09T05:28:47.917Z,62.06
2022-09-09T05:29:47.899Z,61.80
2022-09-09T05:30:47.899Z,61.61
2022-09-09T05:31:47.983Z,61.71
2022-09-09T05:32:47.890Z,61.71
2022-09-09T05:33:47.893Z,61.51
2022-09-09T05:34:47.886Z,61.90
2022-09-09T05:35:47.899Z,61.71
2022-09-09T05:36:47.905Z,61.80
2022-09-09T05:37:47.886Z,62.09
2022-09-09T05:38:47.879Z,62.25
2022-09-09T05:39:47.920Z,62.09
2022-09-09T05:40:47.884Z,61.96
2022-09-09T05:41:47.887Z,62.25
2022-09-09T05:42:47.875Z,62.06
2022-09-09T05:43:47.893Z,62.06
2022-09-09T05:44:47.870Z,62.15
2022-09-09T05:45:47.869Z,62.15
2022-09-09T05:46:47.922Z,62.15
2022-09-09T05:47:47.864Z,62.15
2022-09-09T05:48:47.883Z,62.06
2022-09-09T05:49:47.859Z,62.25
2022-09-09T05:50:47.867Z,61.87
2022-09-09T05:51:47.864Z,62.06
2022-09-09T05:52:47.883Z,62.06
2022-09-09T05:53:47.853Z,62.06
2022-09-09T05:54:47.858Z,61.87
2022-09-09T05:55:47.847Z,61.77
2022-09-09T05:56:51.547Z,62.25
2022-09-09T05:57:47.853Z,62.45
2022-09-09T05:58:47.866Z,62.35
2022-09-09T05:59:47.853Z,62.15
2022-09-09T06:00:47.849Z,62.09
2022-09-09T06:01:47.936Z,62.15
2022-09-09T06:02:47.978Z,62.18
2022-09-09T06:03:47.833Z,62.28
2022-09-09T06:04:47.839Z,61.71
2022-09-09T06:05:47.830Z,61.77
2022-09-09T06:06:47.829Z,61.80
2022-09-09T06:07:47.839Z,61.80
2022-09-09T06:08:47.854Z,61.41
2022-09-09T06:09:47.830Z,61.61
2022-09-09T06:10:47.821Z,61.61
2022-09-09T06:11:47.845Z,61.51
2022-09-09T06:12:47.829Z,61.32
2022-09-09T06:13:47.828Z,61.61
2022-09-09T06:14:47.818Z,61.32
2022-09-09T06:15:47.821Z,61.41
2022-09-09T06:16:47.813Z,61.61
2022-09-09T06:17:47.816Z,61.51
2022-09-09T06:18:47.810Z,61.13
2022-09-09T06:19:47.822Z,61.13
2022-09-09T06:20:47.817Z,61.32
2022-09-09T06:21:47.815Z,61.03
2022-09-09T06:22:47.802Z,61.13
2022-09-09T06:23:47.802Z,61.22
2022-09-09T06:24:47.822Z,61.13
2022-09-09T06:25:47.813Z,61.13
2022-09-09T06:26:47.809Z,61.03
2022-09-09T06:27:47.827Z,61.25
2022-09-09T06:28:47.803Z,60.93
2022-09-09T06:29:47.800Z,61.41
2022-09-09T06:30:47.793Z,61.22
2022-09-09T06:31:47.844Z,61.32
2022-09-09T06:32:47.804Z,60.77
2022-09-09T06:33:47.791Z,60.83
2022-09-09T06:34:47.791Z,60.77
2022-09-09T06:35:47.794Z,60.68
2022-09-09T06:36:47.794Z,60.77
2022-09-09T06:37:47.792Z,60.38
2022-09-09T06:38:47.787Z,60.38
2022-09-09T06:39:47.824Z,60.38
2022-09-09T06:40:47.799Z,60.38
2022-09-09T06:41:47.784Z,60.68
2022-09-09T06:42:47.779Z,60.68
2022-09-09T06:43:47.781Z,60.38
2022-09-09T06:44:47.782Z,60.68
2022-09-09T06:45:47.781Z,60.58
2022-09-09T06:46:47.857Z,60.68
2022-09-09T06:47:47.774Z,60.68
2022-09-09T06:48:47.776Z,60.68
2022-09-09T06:49:48.526Z,60.77
2022-09-09T06:50:47.856Z,60.48
2022-09-09T06:51:47.770Z,60.48
2022-09-09T06:52:47.770Z,60.38
2022-09-09T06:53:47.768Z,60.28
2022-09-09T06:54:47.767Z,60.48
2022-09-09T06:55:47.768Z,60.38
2022-09-09T06:56:47.778Z,60.68
2022-09-09T06:57:47.774Z,60.68
2022-09-09T06:58:47.767Z,60.48
2022-09-09T06:59:47.761Z,60.48
2022-09-09T07:00:47.808Z,60.48
2022-09-09T07:01:50.287Z,60.48
2022-09-09T07:02:47.762Z,60.68
2022-09-09T07:03:47.760Z,60.28
2022-09-09T07:04:47.752Z,60.28
2022-09-09T07:05:47.759Z,59.90
2022-09-09T07:06:47.757Z,60.38
2022-09-09T07:07:47.755Z,60.22
2022-09-09T07:08:55.974Z,59.83
2022-09-09T07:09:47.751Z,59.74
2022-09-09T07:10:47.752Z,59.83
2022-09-09T07:11:47.760Z,59.93
2022-09-09T07:12:47.773Z,60.22
2022-09-09T07:13:47.746Z,59.93
2022-09-09T07:14:47.747Z,59.55
2022-09-09T07:15:47.794Z,59.45
2022-09-09T07:16:47.756Z,59.25
2022-09-09T07:17:47.745Z,59.16
2022-09-09T07:18:47.750Z,59.25
2022-09-09T07:19:47.757Z,59.35
2022-09-09T07:20:47.756Z,59.25
2022-09-09T07:21:47.747Z,59.45
2022-09-09T07:22:47.747Z,59.06
2022-09-09T07:23:47.756Z,59.16
2022-09-09T07:24:47.760Z,59.45
2022-09-09T07:25:47.775Z,59.25
2022-09-09T07:26:47.744Z,59.64
2022-09-09T07:27:47.742Z,59.45
2022-09-09T07:28:47.754Z,59.48
2022-09-09T07:29:47.745Z,59.45
2022-09-09T07:30:47.742Z,59.38
2022-09-09T07:31:47.826Z,59.00
2022-09-09T07:32:47.738Z,58.80
2022-09-09T07:33:47.747Z,58.80
2022-09-09T07:34:47.741Z,58.90
2022-09-09T07:35:47.734Z,59.28
2022-09-09T07:36:47.748Z,58.70
2022-09-09T07:37:50.837Z,58.90
2022-09-09T07:38:47.732Z,58.90
2022-09-09T07:39:47.764Z,58.90
2022-09-09T07:40:47.737Z,58.80
2022-09-09T07:41:47.734Z,58.70
2022-09-09T07:42:47.731Z,58.70
2022-09-09T07:43:47.745Z,58.54
2022-09-09T07:44:47.777Z,58.51
2022-09-09T07:45:47.742Z,58.54
2022-09-09T07:46:47.820Z,58.70
2022-09-09T07:47:47.739Z,58.54
2022-09-09T07:48:47.732Z,58.83
2022-09-09T07:49:47.745Z,58.73
2022-09-09T07:50:47.744Z,58.83
2022-09-09T07:51:47.743Z,59.02
2022-09-09T07:52:47.746Z,58.83
2022-09-09T07:53:47.741Z,58.93
2022-09-09T07:54:47.738Z,58.25
2022-09-09T07:55:47.740Z,58.25
2022-09-09T07:56:47.744Z,58.25
2022-09-09T07:57:47.741Z,58.93
2022-09-09T07:58:47.746Z,58.83
2022-09-09T07:59:47.737Z,58.73
2022-09-09T08:00:47.757Z,58.93
2022-09-09T08:01:47.777Z,58.93
2022-09-09T08:02:47.757Z,58.64
2022-09-09T08:03:47.743Z,58.64
2022-09-09T08:04:47.739Z,58.54
2022-09-09T08:05:47.745Z,58.93
2022-09-09T08:06:47.743Z,59.02
2022-09-09T08:07:47.755Z,59.19
2022-09-09T08:08:47.876Z,59.19
2022-09-09T08:09:47.743Z,59.19
2022-09-09T08:10:47.735Z,59.48
2022-09-09T08:11:47.786Z,59.48
2022-09-09T08:13:07.754Z,59.48
2022-09-09T08:13:50.888Z,59.28
2022-09-09T08:14:47.736Z,59.58
2022-09-09T08:15:47.773Z,59.48
2022-09-09T08:16:47.753Z,59.58
2022-09-09T08:17:47.747Z,59.28
2022-09-09T08:18:47.737Z,59.38
2022-09-09T08:19:47.755Z,59.48
2022-09-09T08:20:47.735Z,59.58
2022-09-09T08:21:47.746Z,59.83
2022-09-09T08:22:47.799Z,59.83
2022-09-09T08:23:47.764Z,59.93
2022-09-09T08:24:47.733Z,59.83
2022-09-09T08:25:47.734Z,59.64
2022-09-09T08:26:47.788Z,59.74
2022-09-09T08:27:47.781Z,59.93
2022-09-09T08:28:47.736Z,59.74
2022-09-09T08:29:47.744Z,59.74
2022-09-09T08:30:47.737Z,59.64
2022-09-09T08:31:47.735Z,59.74
2022-09-09T08:32:49.621Z,59.83
2022-09-09T08:33:47.724Z,59.74
2022-09-09T08:34:47.716Z,60.03
2022-09-09T08:35:49.645Z,59.93
2022-09-09T08:36:47.719Z,60.03
2022-09-09T08:37:51.625Z,59.93
2022-09-09T08:38:47.719Z,59.45
2022-09-09T08:39:47.724Z,60.22
2022-09-09T08:40:47.796Z,59.25
2022-09-09T08:41:47.721Z,59.55
2022-09-09T08:42:47.728Z,59.35
2022-09-09T08:43:47.718Z,59.35
2022-09-09T08:44:48.968Z,59.16
2022-09-09T08:45:47.713Z,59.45
2022-09-09T08:46:47.787Z,59.16
2022-09-09T08:47:47.707Z,59.25
2022-09-09T08:48:47.734Z,59.16
2022-09-09T08:49:47.704Z,59.55
2022-09-09T08:50:48.716Z,59.25
2022-09-09T08:51:50.977Z,59.35
2022-09-09T08:52:50.524Z,59.45
2022-09-09T08:53:50.319Z,58.97
2022-09-09T08:54:52.504Z,59.25
2022-09-09T08:55:47.954Z,58.97
2022-09-09T08:56:51.741Z,58.87
2022-09-09T08:57:47.700Z,58.68
2022-09-09T08:58:47.968Z,58.90
2022-09-09T08:59:47.944Z,58.61
2022-09-09T09:00:47.704Z,58.48
2022-09-09T09:02:29.974Z,58.58
2022-09-09T09:03:29.974Z,58.70
2022-09-09T09:04:30.052Z,58.80
2022-09-09T09:05:29.966Z,58.77
2022-09-09T09:06:29.981Z,58.80
2022-09-09T09:07:32.828Z,58.90
2022-09-09T09:08:30.047Z,58.39
2022-09-09T09:09:30.218Z,58.22
2022-09-09T09:10:41.822Z,58.22
2022-09-09T09:11:29.968Z,58.51
2022-09-09T09:12:29.964Z,58.61
2022-09-09T09:17:43.882Z,58.42
2022-09-09T09:18:43.884Z,58.32
2022-09-09T09:19:43.891Z,58.61
2022-09-09T09:20:43.882Z,58.51
2022-09-09T09:21:43.889Z,58.51
2022-09-09T09:22:43.872Z,58.61
2022-09-09T09:23:43.870Z,58.10
2022-09-09T09:24:43.871Z,58.03
2022-09-09T09:25:44.125Z,58.03
2022-09-09T09:26:44.219Z,57.93
2022-09-09T09:27:43.914Z,57.74
2022-09-09T09:28:43.876Z,57.93
2022-09-09T09:36:11.580Z,58.12
2022-09-09T09:37:11.798Z,58.03
2022-09-09T09:40:11.770Z,57.93
2022-09-09T09:41:14.179Z,57.93
2022-09-09T09:42:11.898Z,57.90
2022-09-09T09:43:11.675Z,57.84
2022-09-09T09:44:11.552Z,57.81
2022-09-09T09:45:11.558Z,58.12
2022-09-09T09:46:17.863Z,57.62
2022-09-09T09:47:11.791Z,57.62
2022-09-09T09:48:13.816Z,57.84
2022-09-09T09:49:11.583Z,57.64
2022-09-09T09:50:11.905Z,57.62
2022-09-09T09:51:11.581Z,57.71
2022-09-09T09:52:11.566Z,57.74
2022-09-09T09:53:11.559Z,57.62
2022-09-09T09:54:11.558Z,57.90
2022-09-09T09:55:11.562Z,57.90
2022-09-09T09:56:11.556Z,58.00
2022-09-09T09:57:11.547Z,58.00
2022-09-09T09:58:13.026Z,57.81
2022-09-09T09:59:18.032Z,57.90
2022-09-09T10:00:11.599Z,57.90
2022-09-09T10:01:11.592Z,57.71
2022-09-09T10:02:11.552Z,57.52
2022-09-09T10:03:11.540Z,57.62
2022-09-09T10:04:11.546Z,57.62
2022-09-09T10:05:11.548Z,57.81
2022-09-09T10:06:11.542Z,57.52
2022-09-09T10:07:11.543Z,57.81
2022-09-09T10:08:11.567Z,57.81
2022-09-09T10:09:11.541Z,57.90
2022-09-09T10:10:11.596Z,57.90
2022-09-09T10:11:11.550Z,57.90
2022-09-09T10:12:11.543Z,57.90
2022-09-09T10:13:11.565Z,57.81
2022-09-09T10:14:11.548Z,57.81
2022-09-09T10:15:11.538Z,58.10
2022-09-09T10:16:11.831Z,58.00
2022-09-09T10:17:11.763Z,57.90
2022-09-09T10:18:11.779Z,58.00
2022-09-09T10:19:11.573Z,58.00
2022-09-09T10:20:11.856Z,57.90
2022-09-09T10:21:11.532Z,57.71
2022-09-09T10:22:11.529Z,57.81
2022-09-09T10:23:11.532Z,57.71
2022-09-09T10:24:11.544Z,57.71
2022-09-09T10:25:11.592Z,57.90
2022-09-09T10:26:11.540Z,57.62
2022-09-09T10:27:11.528Z,57.90
2022-09-09T10:28:11.528Z,57.81
2022-09-09T10:29:11.528Z,57.81
2022-09-09T10:30:11.665Z,57.62
2022-09-09T10:31:11.617Z,57.90
2022-09-09T10:32:11.536Z,57.71
2022-09-09T10:33:11.686Z,58.00
2022-09-09T10:34:11.525Z,57.62
2022-09-09T10:35:11.524Z,58.00
2022-09-09T10:36:11.531Z,57.90
2022-09-09T10:37:11.528Z,57.90
2022-09-09T10:38:11.513Z,57.81
2022-09-09T10:39:11.521Z,58.00
2022-09-09T10:40:11.689Z,57.71
2022-09-09T10:41:11.528Z,58.00
2022-09-09T10:42:11.512Z,58.10
2022-09-09T10:43:11.509Z,58.00
2022-09-09T10:44:11.531Z,58.00
2022-09-09T10:45:11.522Z,57.90
2022-09-09T10:46:11.588Z,57.90
2022-09-09T10:47:11.515Z,58.10
2022-09-09T10:48:11.517Z,57.81
2022-09-09T10:49:11.517Z,57.81
2022-09-09T10:50:11.506Z,57.81
2022-09-09T10:51:11.501Z,57.62
2022-09-09T10:52:11.512Z,57.71
2022-09-09T10:53:11.511Z,57.90
2022-09-09T10:54:11.510Z,57.42
2022-09-09T10:55:11.497Z,57.71
2022-09-09T10:56:11.523Z,57.32
2022-09-09T10:57:11.515Z,57.23
2022-09-09T10:58:11.498Z,57.42
2022-09-09T10:59:11.503Z,57.23
2022-09-09T11:00:11.512Z,57.14
2022-09-09T11:01:11.547Z,56.94
2022-09-09T11:02:11.497Z,57.42
2022-09-09T11:03:11.501Z,56.96
2022-09-09T11:04:11.580Z,57.16
2022-09-09T11:05:11.583Z,57.06
2022-09-09T11:06:11.553Z,56.96
2022-09-09T11:07:12.171Z,56.87
2022-09-09T11:08:11.536Z,57.16
2022-09-09T11:09:11.498Z,57.16
2022-09-09T11:10:11.493Z,57.16
2022-09-09T11:11:11.517Z,57.26
2022-09-09T11:12:11.514Z,57.26
2022-09-09T11:13:11.496Z,57.06
2022-09-09T11:14:11.491Z,57.14
2022-09-09T11:15:11.496Z,57.16
2022-09-09T11:16:11.486Z,57.14
2022-09-09T11:17:11.484Z,57.06
2022-09-09T11:18:11.492Z,57.16
2022-09-09T11:19:11.489Z,57.26
2022-09-09T11:20:11.493Z,57.26
2022-09-09T11:21:11.491Z,57.35
2022-09-09T11:22:11.490Z,57.26
2022-09-09T11:23:11.537Z,57.06
2022-09-09T11:24:11.486Z,57.06
2022-09-09T11:25:11.524Z,57.16
2022-09-09T11:26:11.491Z,56.96
2022-09-09T11:27:11.485Z,57.16
2022-09-09T11:28:11.500Z,57.06
2022-09-09T11:29:11.503Z,57.26
2022-09-09T11:30:11.490Z,57.26
2022-09-09T11:31:11.571Z,57.06
2022-09-09T11:32:11.495Z,57.16
2022-09-09T11:33:11.479Z,57.06
2022-09-09T11:34:11.489Z,56.96
2022-09-09T11:35:11.506Z,57.16
2022-09-09T11:36:11.505Z,57.16
2022-09-09T11:37:11.477Z,57.26
2022-09-09T11:38:11.496Z,57.16
2022-09-09T11:39:11.511Z,56.96
2022-09-09T11:40:11.525Z,57.06
2022-09-09T11:41:11.490Z,56.96
2022-09-09T11:42:11.483Z,56.87
2022-09-09T11:43:11.471Z,56.39
2022-09-09T11:44:11.508Z,56.39
2022-09-09T11:45:11.494Z,56.68
2022-09-09T11:46:11.529Z,56.68
2022-09-09T11:47:11.473Z,56.77
2022-09-09T11:48:11.483Z,56.68
2022-09-09T11:49:11.465Z,56.96
2022-09-09T11:50:11.490Z,56.77
2022-09-09T11:51:16.622Z,56.48
2022-09-09T11:52:11.469Z,56.48
2022-09-09T11:53:11.466Z,56.39
2022-09-09T11:54:11.470Z,56.39
2022-09-09T11:55:11.490Z,56.48
2022-09-09T11:56:11.460Z,56.39
2022-09-09T11:57:11.465Z,56.39
2022-09-09T11:58:11.463Z,56.58
2022-09-09T11:59:11.455Z,56.58
2022-09-09T12:00:11.501Z,56.48
2022-09-09T12:01:11.472Z,56.39
2022-09-09T12:02:11.572Z,56.48
2022-09-09T12:03:11.469Z,56.58
2022-09-09T12:04:11.459Z,56.39
2022-09-09T12:05:11.499Z,56.39
2022-09-09T12:06:11.466Z,56.48
2022-09-09T12:07:11.455Z,56.39
2022-09-09T12:08:11.455Z,56.39
2022-09-09T12:09:11.461Z,56.39
2022-09-09T12:10:11.467Z,56.48
2022-09-09T12:11:11.462Z,56.48
2022-09-09T12:12:11.466Z,56.48
2022-09-09T12:13:11.452Z,56.39
2022-09-09T12:14:11.452Z,56.29
2022-09-09T12:15:11.450Z,56.39
2022-09-09T12:16:11.526Z,56.68
2022-09-09T12:17:11.453Z,56.29
2022-09-09T12:18:11.453Z,56.39
2022-09-09T12:19:11.453Z,56.48
2022-09-09T12:20:11.452Z,56.39
2022-09-09T12:21:11.455Z,56.48
2022-09-09T12:22:11.445Z,56.48
2022-09-09T12:23:11.449Z,56.39
2022-09-09T12:24:11.457Z,56.48
2022-09-09T12:25:11.445Z,56.58
2022-09-09T12:26:11.458Z,56.58
2022-09-09T12:27:11.450Z,56.68
2022-09-09T12:28:11.453Z,56.68
2022-09-09T12:29:11.443Z,56.77
2022-09-09T12:30:11.456Z,56.68
2022-09-09T12:31:11.535Z,56.68
2022-09-09T12:32:12.416Z,56.58
2022-09-09T12:33:11.451Z,56.58
2022-09-09T12:34:11.448Z,56.48
2022-09-09T12:35:11.449Z,56.58
2022-09-09T12:36:11.440Z,56.58
2022-09-09T12:37:11.446Z,56.58
2022-09-09T12:38:11.438Z,56.68
2022-09-09T12:39:11.438Z,56.68
2022-09-09T12:40:11.522Z,56.68
2022-09-09T12:41:11.444Z,56.87
2022-09-09T12:42:11.447Z,56.77
2022-09-09T12:43:11.440Z,56.29
2022-09-09T12:44:11.440Z,56.96
2022-09-09T12:45:11.443Z,56.20
2022-09-09T12:46:11.532Z,56.29
2022-09-09T12:47:11.485Z,56.29
2022-09-09T12:48:11.460Z,56.29
2022-09-09T12:49:11.523Z,56.10
2022-09-09T12:50:11.474Z,56.20
2022-09-09T12:51:11.497Z,56.20
2022-09-09T12:52:11.455Z,56.87
2022-09-09T12:53:11.434Z,56.68
2022-09-09T12:54:11.437Z,56.20
2022-09-09T12:55:11.432Z,56.10
2022-09-09T12:56:11.423Z,56.20
2022-09-09T12:57:11.421Z,56.10
2022-09-09T12:58:11.431Z,56.48
2022-09-09T12:59:11.448Z,56.10
2022-09-09T13:00:11.425Z,56.10
2022-09-09T13:01:11.465Z,55.90
2022-09-09T13:02:11.531Z,55.90
2022-09-09T13:03:11.424Z,56.10
2022-09-09T13:04:11.435Z,56.29
2022-09-09T13:05:11.424Z,56.20
2022-09-09T13:06:11.423Z,56.00